Time;durP1;ratioP1;P1;durP2;ratioP2;P2;SDS_P1;SDS_P2;PMS_P1;PMS_P2;Temp;Humidity;BMP_temperature;BMP_pressure;BME280_temperature;BME280_humidity;BME280_pressure;Samples;Min_cycle;Max_cycle;Signal;HPM_P1;HPM_P2
2021/03/29 00:00:30;;;;;;;21.60;9.48;;;;;;;7.18;60.34;101743.52;1737026;81;21620;-75
2021/03/29 00:02:59;;;;;;;22.52;9.48;;;;;;;7.19;60.45;101750.02;1737624;81;21555;-76
2021/03/29 00:05:27;;;;;;;21.80;9.50;;;;;;;7.19;60.49;101748.70;1750976;81;21212;-76
2021/03/29 00:07:56;;;;;;;26.05;9.80;;;;;;;7.20;60.57;101753.05;1740734;81;21132;-76
2021/03/29 00:10:23;;;;;;;20.48;10.00;;;;;;;7.21;60.65;101752.10;1742850;81;21200;-76
2021/03/29 00:12:50;;;;;;;23.35;9.30;;;;;;;7.21;60.69;101747.27;1706382;83;21158;-76
2021/03/29 00:15:21;;;;;;;20.82;9.08;;;;;;;7.23;60.73;101751.49;1726689;81;21218;-76
2021/03/29 00:17:48;;;;;;;21.20;9.80;;;;;;;7.24;60.77;101748.36;1680624;81;21155;-76
2021/03/29 00:20:19;;;;;;;25.40;10.85;;;;;;;7.23;60.84;101747.52;1756681;81;21603;-76
2021/03/29 00:22:45;;;;;;;21.57;10.05;;;;;;;7.25;60.88;101748.23;1720509;83;21207;-76
2021/03/29 00:25:14;;;;;;;19.80;8.80;;;;;;;7.25;60.94;101750.88;1694270;83;21199;-76
2021/03/29 00:27:40;;;;;;;25.77;10.53;;;;;;;7.25;60.99;101754.86;1717844;82;21132;-76
2021/03/29 00:30:12;;;;;;;24.43;9.45;;;;;;;7.26;61.02;101754.38;1702293;84;21388;-76
2021/03/29 00:32:38;;;;;;;24.52;9.38;;;;;;;7.26;61.08;101755.23;1683250;85;21248;-76
2021/03/29 00:35:05;;;;;;;23.80;11.03;;;;;;;7.26;61.10;101748.60;1684565;84;21185;-76
2021/03/29 00:37:32;;;;;;;18.60;8.78;;;;;;;7.28;61.16;101750.64;1684241;85;21198;-76
2021/03/29 00:39:58;;;;;;;26.73;9.98;;;;;;;7.29;61.20;101743.53;1677912;84;21458;-76
2021/03/29 00:42:25;;;;;;;17.77;9.00;;;;;;;7.29;61.20;101755.00;1656436;85;21175;-76
2021/03/29 00:44:51;;;;;;;19.52;8.88;;;;;;;7.32;61.26;101752.11;1670619;85;21180;-76
2021/03/29 00:47:17;;;;;;;15.70;7.85;;;;;;;7.33;61.29;101747.17;1670475;85;21196;-76
2021/03/29 00:49:43;;;;;;;23.87;8.33;;;;;;;7.36;61.32;101749.59;1670443;85;21179;-76
2021/03/29 00:52:10;;;;;;;21.12;8.30;;;;;;;7.40;61.34;101748.88;1670535;85;21144;-75
2021/03/29 00:54:36;;;;;;;21.35;8.43;;;;;;;7.42;61.35;101742.48;1677646;83;21160;-76
2021/03/29 00:57:03;;;;;;;21.05;8.85;;;;;;;7.43;61.39;101741.53;1714229;83;21162;-76
2021/03/29 00:59:29;;;;;;;15.83;7.28;;;;;;;7.45;61.39;101742.28;1714003;83;21268;-76
2021/03/29 01:01:55;;;;;;;19.37;8.05;;;;;;;7.48;61.42;101745.17;1714078;83;21598;-76
2021/03/29 01:04:22;;;;;;;20.68;7.35;;;;;;;7.49;61.43;101749.02;1714244;83;21169;-76
2021/03/29 01:06:50;;;;;;;17.27;8.43;;;;;;;7.51;61.46;101745.78;1713911;83;21209;-76
2021/03/29 01:09:22;;;;;;;19.73;7.40;;;;;;;7.53;61.49;101742.52;1714249;83;21193;-76
2021/03/29 01:11:55;;;;;;;15.93;7.47;;;;;;;7.53;61.50;101750.48;1714025;83;21241;-76
2021/03/29 01:14:30;;;;;;;18.70;7.25;;;;;;;7.56;61.52;101747.25;1714174;83;21226;-76
2021/03/29 01:17:20;;;;;;;18.55;7.65;;;;;;;7.56;61.51;101749.42;1690825;83;21225;-77
2021/03/29 01:19:54;;;;;;;17.05;7.55;;;;;;;7.58;61.52;101738.67;1714302;83;21259;-76
2021/03/29 01:22:23;;;;;;;17.35;7.50;;;;;;;7.58;61.55;101741.33;1691813;83;21138;-76
2021/03/29 01:25:14;;;;;;;16.80;7.50;;;;;;;7.57;61.54;101735.64;1714246;83;21367;-76
2021/03/29 01:28:01;;;;;;;19.60;7.33;;;;;;;7.58;61.58;101728.05;1712594;83;21618;-76
2021/03/29 01:30:30;;;;;;;17.00;7.35;;;;;;;7.56;61.58;101732.65;1710286;83;21618;-76
2021/03/29 01:32:57;;;;;;;17.27;7.75;;;;;;;7.57;61.58;101743.13;1710942;83;21150;-76
2021/03/29 01:35:32;;;;;;;15.48;6.60;;;;;;;7.55;61.62;101742.41;1710708;83;21134;-76
2021/03/29 01:37:59;;;;;;;16.70;6.35;;;;;;;7.54;61.64;101740.23;1710266;83;21198;-77
2021/03/29 01:40:25;;;;;;;18.92;7.08;;;;;;;7.57;61.65;101743.61;1710591;83;21234;-77
2021/03/29 01:42:51;;;;;;;12.55;6.70;;;;;;;7.56;61.67;101749.90;1710403;83;21158;-77
2021/03/29 01:45:18;;;;;;;14.95;7.25;;;;;;;7.57;61.68;101750.24;1710411;83;21155;-76
2021/03/29 01:47:44;;;;;;;16.93;6.58;;;;;;;7.58;61.71;101751.47;1710446;83;21163;-76
2021/03/29 01:50:15;;;;;;;14.65;6.92;;;;;;;7.62;61.72;101753.41;1710491;83;21240;-76
2021/03/29 01:52:42;;;;;;;16.50;7.10;;;;;;;7.61;61.73;101750.38;1710524;83;21178;-76
2021/03/29 01:55:09;;;;;;;19.17;7.25;;;;;;;7.60;61.76;101753.51;1710245;83;21199;-77
2021/03/29 01:57:36;;;;;;;16.87;7.20;;;;;;;7.59;61.76;101753.17;1708581;83;21206;-76
2021/03/29 02:00:19;;;;;;;16.85;7.20;;;;;;;7.60;61.79;101754.83;1708355;83;21135;-76
2021/03/29 02:02:45;;;;;;;14.98;6.33;;;;;;;7.60;61.81;101752.69;1710494;83;22230;-75
2021/03/29 02:05:12;;;;;;;19.73;6.45;;;;;;;7.60;61.84;101756.67;1710243;83;21598;-76
2021/03/29 02:07:39;;;;;;;12.82;6.75;;;;;;;7.62;61.86;101760.05;1710357;83;21214;-76
2021/03/29 02:10:10;;;;;;;17.30;6.08;;;;;;;7.63;61.87;101748.47;1710601;83;21182;-76
2021/03/29 02:12:38;;;;;;;13.05;6.40;;;;;;;7.65;61.88;101753.16;1710534;83;21694;-76
2021/03/29 02:15:09;;;;;;;15.90;6.22;;;;;;;7.67;61.89;101748.60;1710536;83;22294;-76
2021/03/29 02:17:37;;;;;;;19.50;6.90;;;;;;;7.68;61.90;101751.59;1709777;83;21689;-76
2021/03/29 02:20:12;;;;;;;12.73;6.15;;;;;;;7.70;61.90;101753.19;1684008;83;21221;-76
2021/03/29 02:22:38;;;;;;;14.03;6.83;;;;;;;7.72;61.91;101755.71;1706315;83;21166;-76
2021/03/29 02:25:06;;;;;;;12.78;6.45;;;;;;;7.72;61.89;101753.05;1710540;83;21166;-76
2021/03/29 02:27:35;;;;;;;15.15;6.05;;;;;;;7.72;61.91;101750.40;1710585;83;21216;-76
2021/03/29 02:30:10;;;;;;;17.90;6.72;;;;;;;7.73;61.91;101748.97;1710586;83;21615;-76
2021/03/29 02:32:43;;;;;;;15.30;7.05;;;;;;;7.74;61.92;101749.81;1710507;83;21197;-76
2021/03/29 02:35:11;;;;;;;10.88;5.42;;;;;;;7.76;61.92;101749.20;1710552;83;21591;-76
2021/03/29 02:37:39;;;;;;;17.98;5.92;;;;;;;7.77;61.93;101751.75;1710518;83;21179;-76
2021/03/29 02:40:09;;;;;;;14.40;6.67;;;;;;;7.80;61.95;101751.99;1710616;83;21206;-76
2021/03/29 02:42:36;;;;;;;13.90;5.67;;;;;;;7.82;61.94;101751.38;1710352;83;21202;-76
2021/03/29 02:45:08;;;;;;;11.70;5.17;;;;;;;7.82;61.93;101753.55;1710476;83;21142;-76
2021/03/29 02:47:35;;;;;;;15.68;6.28;;;;;;;7.84;61.95;101750.80;1710372;83;21222;-75
2021/03/29 02:50:07;;;;;;;14.30;5.60;;;;;;;7.85;61.96;101752.46;1671457;85;21193;-76
2021/03/29 02:52:33;;;;;;;11.80;4.97;;;;;;;7.88;61.96;101752.25;1682044;85;21190;-76
2021/03/29 02:54:59;;;;;;;17.57;6.03;;;;;;;7.92;61.98;101755.00;1681745;85;21206;-76
2021/03/29 02:57:25;;;;;;;13.00;4.92;;;;;;;7.94;61.96;101752.61;1681623;84;21134;-76
2021/03/29 02:59:52;;;;;;;13.25;4.75;;;;;;;7.96;61.95;101753.80;1681649;85;21634;-76
2021/03/29 03:02:18;;;;;;;13.55;6.17;;;;;;;7.98;61.95;101751.89;1682166;85;21429;-76
2021/03/29 03:04:44;;;;;;;10.38;5.10;;;;;;;8.01;61.96;101751.17;1681945;85;21261;-76
2021/03/29 03:07:10;;;;;;;9.03;4.87;;;;;;;8.02;61.97;101749.36;1681951;85;21181;-76
2021/03/29 03:09:37;;;;;;;11.85;5.03;;;;;;;8.02;61.96;101746.70;1681646;85;21170;-76
2021/03/29 03:12:04;;;;;;;11.70;5.03;;;;;;;8.02;61.96;101750.18;1681877;85;21193;-76
2021/03/29 03:14:30;;;;;;;15.60;5.25;;;;;;;8.05;61.95;101751.77;1681861;85;21376;-76
2021/03/29 03:16:56;;;;;;;11.22;4.87;;;;;;;8.07;61.98;101751.16;1682079;85;21185;-76
2021/03/29 03:19:22;;;;;;;12.05;4.62;;;;;;;8.10;61.94;101754.89;1709417;83;21161;-76
2021/03/29 03:21:50;;;;;;;8.83;4.47;;;;;;;8.12;61.94;101758.30;1710315;83;21158;-76
2021/03/29 03:24:17;;;;;;;10.40;4.65;;;;;;;8.14;61.94;101758.16;1710687;83;21179;-77
2021/03/29 03:26:43;;;;;;;15.53;5.62;;;;;;;8.13;61.92;101751.99;1710519;83;21142;-76
2021/03/29 03:29:09;;;;;;;10.35;4.40;;;;;;;8.14;61.94;101752.36;1708315;83;21210;-76
2021/03/29 03:31:36;;;;;;;12.25;4.37;;;;;;;8.14;61.93;101753.69;1710512;83;21611;-76
2021/03/29 03:34:02;;;;;;;11.12;4.37;;;;;;;8.14;61.96;101756.34;1710430;83;21138;-77
2021/03/29 03:36:29;;;;;;;9.40;4.65;;;;;;;8.17;61.97;101756.10;1710511;83;21154;-76
2021/03/29 03:38:55;;;;;;;10.63;4.50;;;;;;;8.19;61.94;101754.67;1710537;83;21173;-76
2021/03/29 03:41:28;;;;;;;11.80;4.50;;;;;;;8.19;61.96;101748.87;1710640;83;21250;-76
2021/03/29 03:43:56;;;;;;;13.90;5.05;;;;;;;8.20;61.99;101743.90;1710055;83;21214;-76
2021/03/29 03:46:27;;;;;;;16.05;4.75;;;;;;;8.22;61.97;101743.31;1710407;83;21190;-76
2021/03/29 03:48:55;;;;;;;9.45;4.25;;;;;;;8.26;61.96;101746.58;1710435;83;21170;-76
2021/03/29 03:51:25;;;;;;;12.40;4.62;;;;;;;8.25;61.96;101740.41;1710493;83;21157;-76
2021/03/29 03:53:52;;;;;;;10.45;4.22;;;;;;;8.26;61.97;101738.59;1710814;83;21763;-76
2021/03/29 03:56:19;;;;;;;9.83;4.30;;;;;;;8.26;61.96;101742.59;1686635;83;21190;-76
2021/03/29 03:58:46;;;;;;;10.00;4.25;;;;;;;8.28;61.97;101744.63;1681977;85;21190;-76
2021/03/29 04:01:12;;;;;;;10.20;4.30;;;;;;;8.26;61.98;101742.11;1681871;85;21165;-76
2021/03/29 04:03:39;;;;;;;17.67;4.65;;;;;;;8.27;62.00;101745.10;1681881;84;21241;-76
2021/03/29 04:06:05;;;;;;;11.08;4.08;;;;;;;8.29;61.99;101743.22;1681659;85;21316;-76
2021/03/29 04:08:31;;;;;;;9.18;4.42;;;;;;;8.30;62.00;101746.22;1681906;85;21169;-76
2021/03/29 04:11:00;;;;;;;9.38;3.77;;;;;;;8.32;62.01;101747.44;1692537;83;21575;-77
2021/03/29 04:13:29;;;;;;;13.30;4.58;;;;;;;8.34;62.01;101750.32;1710349;83;21150;-76
2021/03/29 04:15:57;;;;;;;9.88;4.00;;;;;;;8.35;62.01;101752.02;1710926;83;21209;-76
2021/03/29 04:18:24;;;;;;;7.75;3.83;;;;;;;8.35;62.00;101756.02;1710502;83;21675;-77
2021/03/29 04:20:51;;;;;;;7.45;3.90;;;;;;;8.35;62.00;101764.47;1710600;83;21213;-77
2021/03/29 04:23:18;;;;;;;12.13;4.20;;;;;;;8.35;62.03;101757.34;1701779;83;21612;-77
2021/03/29 04:25:45;;;;;;;13.45;3.72;;;;;;;8.39;62.04;101750.81;1682044;85;21229;-77
2021/03/29 04:28:11;;;;;;;8.60;3.70;;;;;;;8.40;62.03;101759.16;1681974;83;21185;-77
2021/03/29 04:30:38;;;;;;;11.08;3.50;;;;;;;8.40;62.03;101755.17;1682078;85;21260;-76
2021/03/29 04:33:06;;;;;;;12.18;4.22;;;;;;;8.42;62.04;101761.68;1682175;85;21205;-76
2021/03/29 04:35:33;;;;;;;9.98;3.80;;;;;;;8.43;62.04;101762.05;1681975;84;21571;-77
2021/03/29 04:37:59;;;;;;;11.20;3.87;;;;;;;8.43;62.06;101756.25;1682174;85;21205;-77
2021/03/29 04:40:26;;;;;;;7.65;3.55;;;;;;;8.44;62.04;101757.92;1682197;85;21169;-77
2021/03/29 04:42:53;;;;;;;12.47;4.62;;;;;;;8.46;62.06;101756.48;1681972;84;21497;-77
2021/03/29 04:45:20;;;;;;;8.25;3.67;;;;;;;8.47;62.05;101759.03;1682040;85;21222;-76
2021/03/29 04:47:46;;;;;;;8.53;3.65;;;;;;;8.48;62.05;101760.70;1681883;85;21595;-76
2021/03/29 04:50:14;;;;;;;13.70;4.17;;;;;;;8.51;62.04;101762.29;1682106;85;21157;-76
2021/03/29 04:52:40;;;;;;;12.35;3.50;;;;;;;8.51;62.05;101765.77;1705110;83;21170;-76
2021/03/29 04:55:08;;;;;;;15.18;3.90;;;;;;;8.53;62.06;101766.50;1710734;83;21210;-76
2021/03/29 04:57:34;;;;;;;12.25;4.30;;;;;;;8.56;62.06;101767.22;1710444;83;21150;-76
2021/03/29 05:00:00;;;;;;;15.72;3.80;;;;;;;8.57;62.06;101767.59;1710561;83;21701;-76
2021/03/29 05:02:26;;;;;;;11.88;4.05;;;;;;;8.58;62.06;101765.30;1710623;83;21169;-76
2021/03/29 05:04:53;;;;;;;11.20;3.62;;;;;;;8.58;62.07;101767.95;1710493;83;21131;-76
2021/03/29 05:07:19;;;;;;;14.03;3.77;;;;;;;8.59;62.07;101764.30;1710638;83;21792;-76
2021/03/29 05:09:45;;;;;;;12.63;3.70;;;;;;;8.60;62.08;101767.33;1710679;83;21552;-76
2021/03/29 05:12:15;;;;;;;12.03;3.67;;;;;;;8.59;62.08;101766.96;1710665;83;21206;-76
2021/03/29 05:14:40;;;;;;;10.60;3.67;;;;;;;8.61;62.10;101775.20;1710404;83;21553;-76
2021/03/29 05:17:07;;;;;;;10.23;3.87;;;;;;;8.60;62.10;101768.18;1688852;83;21224;-76
2021/03/29 05:19:33;;;;;;;12.05;3.52;;;;;;;8.63;62.12;101768.41;1689973;83;21273;-77
2021/03/29 05:22:00;;;;;;;10.50;3.77;;;;;;;8.66;62.13;101774.80;1710337;83;21622;-76
2021/03/29 05:24:26;;;;;;;11.63;3.87;;;;;;;8.68;62.12;101782.20;1710695;83;21210;-76
2021/03/29 05:26:53;;;;;;;15.15;4.28;;;;;;;8.70;62.14;101785.56;1708596;83;21126;-76
2021/03/29 05:29:19;;;;;;;10.28;3.55;;;;;;;8.72;62.14;101780.98;1712309;83;21211;-76
2021/03/29 05:31:45;;;;;;;11.03;3.17;;;;;;;8.75;62.14;101780.73;1713497;83;21268;-76
2021/03/29 05:34:14;;;;;;;7.85;3.45;;;;;;;8.79;62.15;101779.52;1713594;83;21210;-76
2021/03/29 05:36:41;;;;;;;8.93;3.65;;;;;;;8.84;62.15;101773.31;1713616;83;21156;-76
2021/03/29 05:39:11;;;;;;;11.75;3.75;;;;;;;8.90;62.16;101771.52;1711260;82;21140;-77
2021/03/29 05:41:41;;;;;;;13.75;3.95;;;;;;;8.96;62.15;101772.33;1682056;82;21600;-76
2021/03/29 05:44:08;;;;;;;12.30;4.85;;;;;;;9.01;62.12;101779.43;1685131;84;21222;-77
2021/03/29 05:46:40;;;;;;;11.03;3.33;;;;;;;9.05;62.10;101782.20;1679178;84;21200;-78
2021/03/29 05:49:07;;;;;;;12.15;4.12;;;;;;;9.09;62.09;101777.00;1679040;85;21192;-77
2021/03/29 05:51:40;;;;;;;9.75;3.40;;;;;;;9.14;62.08;101785.45;1678900;84;21458;-77
2021/03/29 05:54:07;;;;;;;9.43;3.20;;;;;;;9.15;62.04;101787.13;1680952;84;21184;-77
2021/03/29 05:56:39;;;;;;;11.05;3.70;;;;;;;9.18;62.04;101788.23;1678833;85;21274;-77
2021/03/29 06:01:49;;;;;;;12.58;3.52;;;;;;;9.29;62.01;101792.66;1845711;77;23272;-78
2021/03/29 06:04:19;;;;;;;8.40;2.80;;;;;;;9.24;62.00;101790.38;1796497;77;21580;-78
2021/03/29 06:06:45;;;;;;;7.78;3.00;;;;;;;9.25;61.96;101788.08;1788941;80;21858;-77
2021/03/29 06:09:11;;;;;;;7.90;3.20;;;;;;;9.25;61.96;101793.41;1791817;80;21061;-77
2021/03/29 06:11:40;;;;;;;7.80;3.33;;;;;;;9.26;61.94;101791.08;1679638;81;21675;-77
2021/03/29 06:14:16;;;;;;;9.03;4.00;;;;;;;9.28;61.94;101795.81;1756908;81;21190;-77
2021/03/29 06:17:15;;;;;;;10.35;3.37;;;;;;;9.29;61.92;101790.82;1757164;78;21175;-77
2021/03/29 06:19:52;;;;;;;7.92;3.33;;;;;;;9.31;61.89;101800.88;1756749;81;21196;-77
2021/03/29 06:22:25;;;;;;;11.35;3.83;;;;;;;9.32;61.88;101802.54;1748408;82;21216;-76
2021/03/29 06:25:09;;;;;;;15.30;3.20;;;;;;;9.33;61.86;101802.91;1748471;82;21152;-77
2021/03/29 06:27:40;;;;;;;8.00;3.12;;;;;;;9.35;61.85;101800.98;1748408;82;21144;-77
2021/03/29 06:30:26;;;;;;;8.53;2.92;;;;;;;9.36;61.84;101799.98;1748493;82;21674;-77
2021/03/29 06:33:13;;;;;;;12.80;3.27;;;;;;;9.38;61.83;101802.05;1756814;81;21258;-77
2021/03/29 06:38:37;;;;;;;6.72;3.30;;;;;;;9.47;61.90;101796.42;1851714;77;22450;-77
2021/03/29 06:41:05;;;;;;;7.37;3.08;;;;;;;9.45;61.92;101800.56;1824088;78;21169;-77
2021/03/29 06:43:38;;;;;;;13.53;3.70;;;;;;;9.46;61.95;101805.41;1824130;78;21298;-77
2021/03/29 06:46:10;;;;;;;8.75;3.30;;;;;;;9.46;61.99;101811.55;1823976;78;21215;-77
2021/03/29 06:48:38;;;;;;;10.45;3.47;;;;;;;9.46;62.04;101810.22;1822160;78;21151;-77
2021/03/29 06:51:18;;;;;;;15.00;6.87;;;;;;;9.48;62.12;101815.44;1783489;78;21163;-77
2021/03/29 06:54:05;;;;;;;6.60;3.58;;;;;;;9.48;62.19;101810.95;1782399;80;21640;-77
2021/03/29 06:56:36;;;;;;;9.83;3.25;;;;;;;9.50;62.24;101814.32;1731071;81;21217;-77
2021/03/29 06:59:11;;;;;;;8.95;3.30;;;;;;;9.51;62.34;101806.70;1735681;81;21235;-77
2021/03/29 07:01:49;;;;;;;21.33;10.75;;;;;;;9.54;62.41;101808.25;1728239;82;21593;-78
2021/03/29 07:04:22;;;;;;;10.98;5.03;;;;;;;9.56;62.49;101798.81;1700985;82;21184;-78
2021/03/29 07:06:48;;;;;;;9.83;4.67;;;;;;;9.60;62.55;101805.58;1700867;83;21152;-77
2021/03/29 07:09:16;;;;;;;12.65;4.62;;;;;;;9.64;62.61;101815.01;1700734;84;21377;-77
2021/03/29 07:11:42;;;;;;;12.18;4.15;;;;;;;9.65;62.65;101816.67;1700901;84;21612;-77
2021/03/29 07:14:09;;;;;;;10.58;4.00;;;;;;;9.67;62.68;101817.41;1702827;82;21199;-77
2021/03/29 07:16:35;;;;;;;56.20;25.32;;;;;;;9.68;62.73;101819.08;1702698;82;21179;-77
2021/03/29 07:19:05;;;;;;;72.40;29.87;;;;;;;9.70;62.77;101825.14;1707250;82;21189;-78
2021/03/29 07:21:31;;;;;;;91.97;40.95;;;;;;;9.70;62.80;101823.33;1707376;82;21283;-77
2021/03/29 07:24:04;;;;;;;53.10;25.92;;;;;;;9.70;62.81;101827.80;1700726;84;21160;-77
2021/03/29 07:26:38;;;;;;;59.55;29.12;;;;;;;9.71;62.88;101829.50;1713617;82;21622;-76
2021/03/29 07:29:24;;;;;;;25.80;15.98;;;;;;;9.74;62.91;101829.23;1720778;82;21211;-76
2021/03/29 07:31:58;;;;;;;17.50;9.80;;;;;;;9.73;62.93;101830.20;1700629;82;21175;-76
2021/03/29 07:34:52;;;;;;;25.32;11.50;;;;;;;9.81;62.96;101830.41;1822167;76;22844;-77
2021/03/29 07:37:30;;;;;;;50.92;21.87;;;;;;;9.78;63.00;101837.33;1804344;77;21238;-78
2021/03/29 07:39:59;;;;;;;37.23;15.90;;;;;;;9.79;63.07;101845.66;1810502;79;21688;-78
2021/03/29 07:42:31;;;;;;;29.67;14.67;;;;;;;9.81;63.12;101849.91;1827959;77;22332;-78
2021/03/29 07:45:00;;;;;;;32.30;17.52;;;;;;;9.84;63.19;101842.98;1776488;80;21989;-78
2021/03/29 07:47:50;;;;;;;28.27;16.27;;;;;;;9.92;63.27;101846.34;1767628;78;21187;-78
2021/03/29 07:50:30;;;;;;;22.45;13.38;;;;;;;9.98;63.36;101848.47;1776609;80;26384;-78
2021/03/29 07:53:19;;;;;;;15.83;8.95;;;;;;;10.02;63.47;101857.90;1722229;82;21208;-78
2021/03/29 07:55:51;;;;;;;10.50;5.45;;;;;;;10.10;63.58;101855.92;1756513;81;21785;-78
2021/03/29 07:58:19;;;;;;;8.20;5.08;;;;;;;10.23;63.67;101854.77;1737574;81;21131;-78
2021/03/29 08:01:04;;;;;;;12.20;4.40;;;;;;;10.33;63.72;101868.98;1718841;82;21154;-78
2021/03/29 08:03:37;;;;;;;12.55;4.78;;;;;;;10.40;63.73;101858.15;1723241;82;21677;-78
2021/03/29 08:06:03;;;;;;;9.03;3.25;;;;;;;10.48;63.77;101862.30;1707040;83;22119;-78
2021/03/29 08:08:35;;;;;;;8.93;3.80;;;;;;;10.48;63.76;101858.30;1734800;81;21163;-78
2021/03/29 08:11:14;;;;;;;11.43;4.00;;;;;;;10.49;63.80;101864.48;1746697;81;21203;-78
2021/03/29 08:13:54;;;;;;;10.60;4.00;;;;;;;10.50;63.82;101867.03;1722135;82;21172;-77
2021/03/29 08:16:28;;;;;;;8.20;3.65;;;;;;;10.55;63.83;101868.46;1722151;81;21160;-77
2021/03/29 08:19:17;;;;;;;8.35;3.30;;;;;;;10.58;63.82;101865.52;1724359;82;21264;-77
2021/03/29 08:21:58;;;;;;;7.78;4.28;;;;;;;10.63;63.83;101859.28;1738300;82;21632;-77
2021/03/29 08:24:28;;;;;;;13.83;4.80;;;;;;;10.68;63.82;101865.06;1739933;81;21183;-77
2021/03/29 08:26:55;;;;;;;;;;;;;;;10.84;63.83;101860.91;1717626;82;21196;-77
2021/03/29 08:29:41;;;;;;;13.75;3.72;;;;;;;10.98;63.82;101861.01;1719771;81;20276;-77
2021/03/29 08:32:20;;;;;;;12.23;3.50;;;;;;;11.06;63.77;101871.01;1756541;80;22078;-77
2021/03/29 08:35:00;;;;;;;11.57;4.10;;;;;;;11.08;63.75;101872.58;1721932;81;21212;-77
2021/03/29 08:37:40;;;;;;;11.95;4.92;;;;;;;11.02;63.71;101871.28;1753818;80;21180;-77
2021/03/29 08:40:13;;;;;;;10.80;5.80;;;;;;;10.99;63.69;101878.72;1747882;82;21202;-78
2021/03/29 08:42:41;;;;;;;9.28;4.33;;;;;;;10.97;63.67;101879.36;1737563;82;21204;-78
2021/03/29 08:45:14;;;;;;;17.70;5.25;;;;;;;10.94;63.63;101879.12;1732361;81;21881;-78
2021/03/29 08:47:42;;;;;;;10.55;4.53;;;;;;;10.95;63.62;101877.30;1714497;83;21685;-78
2021/03/29 08:50:20;;;;;;;10.25;3.30;;;;;;;10.93;63.60;101872.60;1695792;83;21758;-77
2021/03/29 08:52:56;;;;;;;12.30;3.70;;;;;;;10.89;63.59;101872.52;1728891;83;21167;-78
2021/03/29 08:55:25;;;;;;;14.75;4.55;;;;;;;10.87;63.58;101879.83;1717845;81;21148;-78
2021/03/29 08:57:56;;;;;;;12.68;4.42;;;;;;;10.89;63.57;101881.37;1756737;80;22165;-78
2021/03/29 09:00:30;;;;;;;13.80;3.77;;;;;;;10.92;63.53;101885.58;1700903;84;21719;-78
2021/03/29 09:02:56;;;;;;;9.83;3.70;;;;;;;11.01;63.57;101895.47;1724521;80;21174;-79
2021/03/29 09:05:23;;;;;;;12.00;4.12;;;;;;;11.09;63.54;101894.76;1734333;80;21135;-79
2021/03/29 09:07:53;;;;;;;14.85;4.35;;;;;;;11.18;63.57;101893.47;1695585;84;21568;-79
2021/03/29 09:10:36;;;;;;;12.80;4.97;;;;;;;11.28;63.57;101894.33;1732034;81;21131;-79
2021/03/29 09:13:11;;;;;;;11.15;4.10;;;;;;;11.44;63.60;101890.61;1724188;83;21200;-78
2021/03/29 09:15:40;;;;;;;10.23;4.17;;;;;;;11.49;63.62;101900.89;1755063;81;21170;-79
2021/03/29 09:18:15;;;;;;;8.45;3.80;;;;;;;11.48;63.68;101907.21;1703720;83;21627;-78
2021/03/29 09:20:50;;;;;;;10.68;4.35;;;;;;;11.42;63.76;101899.76;1736124;81;21190;-78
2021/03/29 09:23:19;;;;;;;12.20;3.25;;;;;;;11.38;63.90;101895.19;1724045;83;22253;-79
2021/03/29 09:25:48;;;;;;;10.30;3.95;;;;;;;11.37;64.01;101898.83;1733267;81;21905;-79
2021/03/29 09:31:23;;;;;;;12.70;4.12;;;;;;;11.44;64.36;101898.63;1814076;77;22553;-75
2021/03/29 09:33:51;;;;;;;12.58;3.95;;;;;;;11.44;64.48;101898.63;1720240;83;21216;-79
2021/03/29 09:36:20;;;;;;;11.93;5.12;;;;;;;11.52;64.66;101892.11;1711203;83;22067;-79
2021/03/29 09:38:52;;;;;;;12.73;4.17;;;;;;;11.61;64.75;101892.27;1718748;81;21680;-79
2021/03/29 09:41:29;;;;;;;10.08;4.60;;;;;;;11.72;64.87;101893.47;1739195;81;21215;-78
2021/03/29 09:43:57;;;;;;;10.38;4.22;;;;;;;11.78;64.96;101898.27;1726715;83;21180;-78
2021/03/29 09:46:31;;;;;;;10.35;3.72;;;;;;;11.83;65.06;101898.67;1719232;83;21136;-78
2021/03/29 09:49:16;;;;;;;13.75;8.08;;;;;;;11.88;65.18;101891.94;1703248;83;21148;-78
2021/03/29 09:51:44;;;;;;;26.55;10.03;;;;;;;11.93;65.21;101883.47;1713990;83;21051;-78
2021/03/29 09:54:35;;;;;;;13.15;4.65;;;;;;;12.00;65.29;101876.56;1716173;83;21173;-78
2021/03/29 09:57:21;;;;;;;13.85;4.95;;;;;;;12.16;65.37;101874.16;1697854;83;21167;-78
2021/03/29 09:59:52;;;;;;;9.58;4.17;;;;;;;12.36;65.41;101866.43;1709626;83;21628;-78
2021/03/29 10:02:25;;;;;;;11.75;5.00;;;;;;;12.46;65.43;101857.02;1709675;83;21212;-78
2021/03/29 10:05:05;;;;;;;9.50;3.77;;;;;;;12.58;65.41;101873.75;1699706;83;21211;-78
2021/03/29 10:07:31;;;;;;;;;;;;;;;12.66;65.39;101872.04;1700840;84;21167;-78
2021/03/29 10:09:59;;;;;;;13.93;4.08;;;;;;;12.77;65.27;101873.16;1693051;83;20283;-78
2021/03/29 10:12:27;;;;;;;8.73;3.37;;;;;;;12.93;65.23;101872.53;1679486;84;21162;-78
2021/03/29 10:15:08;;;;;;;9.85;3.60;;;;;;;13.03;65.10;101871.98;1679490;85;21507;-78
2021/03/29 10:17:34;;;;;;;10.93;4.05;;;;;;;13.05;65.00;101867.34;1694473;84;21648;-78
2021/03/29 10:20:11;;;;;;;14.03;4.47;;;;;;;13.00;64.88;101864.25;1708105;84;21144;-79
2021/03/29 10:22:38;;;;;;;14.50;3.80;;;;;;;12.85;64.71;101867.07;1699555;84;21652;-79
2021/03/29 10:25:19;;;;;;;9.13;4.12;;;;;;;12.68;64.69;101866.03;1693256;84;21112;-80
2021/03/29 10:27:57;;;;;;;9.65;3.90;;;;;;;12.53;64.67;101861.65;1687072;83;21271;-78
2021/03/29 10:30:26;;;;;;;10.85;4.25;;;;;;;12.41;64.69;101852.14;1702472;83;21765;-78
2021/03/29 10:32:54;;;;;;;15.23;7.60;;;;;;;12.24;64.76;101832.84;1723208;83;21147;-78
2021/03/29 10:35:21;;;;;;;15.80;4.40;;;;;;;12.24;64.76;101832.84;1723181;83;21605;-79
2021/03/29 10:37:48;;;;;;;12.30;5.20;;;;;;;12.38;64.77;101849.76;1693999;84;21187;-79
2021/03/29 10:40:17;;;;;;;17.27;6.87;;;;;;;12.38;64.82;101844.41;1722774;83;22084;-78
2021/03/29 10:42:44;;;;;;;10.90;4.90;;;;;;;12.43;64.87;101846.62;1693500;84;21140;-78
2021/03/29 10:45:13;;;;;;;16.17;7.30;;;;;;;12.46;64.87;101849.00;1723959;83;21915;-78
2021/03/29 10:47:40;;;;;;;22.95;9.10;;;;;;;12.51;64.89;101846.25;1724971;82;21191;-78
2021/03/29 10:50:09;;;;;;;17.23;7.62;;;;;;;12.64;64.88;101841.04;1698726;84;21147;-77
2021/03/29 10:52:35;;;;;;;19.30;10.18;;;;;;;12.72;64.83;101835.80;1698973;84;22139;-78
2021/03/29 10:55:02;;;;;;;17.52;7.92;;;;;;;12.84;64.81;101827.40;1691407;84;21196;-78
2021/03/29 10:57:28;;;;;;;20.52;13.25;;;;;;;13.00;64.76;101822.73;1721908;83;21215;-78
2021/03/29 10:59:55;;;;;;;12.58;5.03;;;;;;;13.18;64.73;101820.96;1722013;83;22185;-78
2021/03/29 11:02:22;;;;;;;15.88;4.65;;;;;;;13.33;64.60;101818.11;1693173;84;21174;-78
2021/03/29 11:04:48;;;;;;;16.65;4.83;;;;;;;13.46;64.45;101811.02;1722750;83;21214;-78
2021/03/29 11:07:15;;;;;;;10.28;3.87;;;;;;;13.61;64.32;101807.30;1690733;84;21176;-78
2021/03/29 11:09:41;;;;;;;13.18;5.28;;;;;;;13.80;64.25;101803.91;1722309;83;21192;-78
2021/03/29 11:12:09;;;;;;;16.82;4.67;;;;;;;14.01;64.06;101799.53;1693472;84;21172;-78
2021/03/29 11:14:35;;;;;;;8.33;3.72;;;;;;;14.14;63.85;101799.13;1722572;83;21108;-78
2021/03/29 11:17:02;;;;;;;15.90;4.80;;;;;;;14.23;63.61;101796.81;1691265;84;21635;-78
2021/03/29 11:19:28;;;;;;;13.10;4.50;;;;;;;14.25;63.37;101794.30;1722393;83;21168;-79
2021/03/29 11:21:54;;;;;;;9.88;3.95;;;;;;;14.29;63.15;101788.11;1691487;83;21163;-78
2021/03/29 11:24:21;;;;;;;11.25;4.47;;;;;;;14.41;62.97;101793.09;1694808;84;21847;-78
2021/03/29 11:26:47;;;;;;;11.40;3.83;;;;;;;14.46;62.60;101785.91;1690069;84;21209;-78
2021/03/29 11:29:14;;;;;;;13.50;4.60;;;;;;;14.47;62.36;101776.33;1685659;85;21203;-78
2021/03/29 11:31:42;;;;;;;14.18;5.10;;;;;;;14.57;62.15;101774.01;1693274;83;21168;-78
2021/03/29 11:34:09;;;;;;;12.28;4.95;;;;;;;14.53;61.80;101774.83;1664228;86;21167;-78
2021/03/29 11:36:35;;;;;;;10.55;4.35;;;;;;;14.52;61.59;101773.67;1685470;85;21182;-78
2021/03/29 11:39:08;;;;;;;17.07;4.17;;;;;;;14.46;61.44;101770.62;1699200;83;21595;-78
2021/03/29 11:41:34;;;;;;;18.55;6.35;;;;;;;14.43;61.33;101765.58;1692022;84;21152;-78
2021/03/29 11:44:00;;;;;;;12.40;5.33;;;;;;;14.47;61.31;101769.63;1688215;84;21180;-79
2021/03/29 11:46:26;;;;;;;28.92;5.10;;;;;;;14.47;61.16;101770.97;1718318;83;21200;-79